createdAt,value
2018-12-04T00:08:47.790Z,11.17
2018-12-04T00:18:49.061Z,11.77
2018-12-04T00:28:50.356Z,11.53
2018-12-04T00:38:52.393Z,11.33
2018-12-04T00:48:53.662Z,13.33
2018-12-04T00:58:54.907Z,8.40
2018-12-04T01:08:56.190Z,10.10
2018-12-04T01:18:57.490Z,17.53
2018-12-04T01:28:58.748Z,12.13
2018-12-04T01:38:59.998Z,10.80
2018-12-04T01:49:01.303Z,12.27
2018-12-04T01:59:02.594Z,13.37
2018-12-04T02:09:03.870Z,12.93
2018-12-04T02:19:05.153Z,7.53
2018-12-04T02:29:06.478Z,10.20
2018-12-04T02:39:07.729Z,11.47
2018-12-04T02:49:08.977Z,10.03
2018-12-04T02:59:10.233Z,9.63
2018-12-04T03:09:11.520Z,11.37
2018-12-04T03:19:12.802Z,9.60
2018-12-04T03:29:19.993Z,10.27
2018-12-04T03:39:21.276Z,11.83
2018-12-04T03:49:22.572Z,13.87
2018-12-04T03:59:23.858Z,6.90
2018-12-04T04:09:25.178Z,11.43
2018-12-04T04:19:26.454Z,10.10
2018-12-04T04:29:27.877Z,9.17
2018-12-04T04:39:29.143Z,8.87
2018-12-04T04:49:30.382Z,10.73
2018-12-04T04:59:32.684Z,9.13
2018-12-04T05:09:33.926Z,12.00
2018-12-04T05:19:35.170Z,13.30
2018-12-04T05:29:36.446Z,12.47
2018-12-04T05:39:37.744Z,10.43
2018-12-04T05:49:39.009Z,13.63
2018-12-04T05:59:40.594Z,13.17
2018-12-04T06:09:42.629Z,15.67
2018-12-04T06:19:43.913Z,13.17
2018-12-04T06:29:45.165Z,16.30
2018-12-04T06:39:46.441Z,17.03
2018-12-04T06:49:47.688Z,19.07
2018-12-04T06:59:49.703Z,17.87
2018-12-04T07:09:51.714Z,18.73
2018-12-04T07:19:53.755Z,22.63
2018-12-04T07:29:55.029Z,19.00
2018-12-04T07:39:57.065Z,24.27
2018-12-04T07:49:58.343Z,19.33
2018-12-04T07:59:59.612Z,21.00
2018-12-04T08:10:00.893Z,21.77
2018-12-04T08:20:02.159Z,20.10
2018-12-04T08:30:03.409Z,12.03
2018-12-04T08:40:05.426Z,12.20
2018-12-04T08:50:07.445Z,12.23
2018-12-04T09:00:09.456Z,9.00
2018-12-04T09:10:10.741Z,6.87
2018-12-04T09:20:12.787Z,8.63
2018-12-04T09:30:14.049Z,8.63
2018-12-04T09:40:16.086Z,8.77
2018-12-04T09:50:17.361Z,8.93
2018-12-04T10:00:19.386Z,6.10
2018-12-04T10:10:20.666Z,8.20
2018-12-04T10:20:22.412Z,10.10
2018-12-04T10:30:23.825Z,8.60
2018-12-04T10:40:25.154Z,8.83
2018-12-04T10:50:26.405Z,9.67
2018-12-04T11:00:27.724Z,7.53
2018-12-04T11:10:28.971Z,10.70
2018-12-04T11:20:30.238Z,8.90
2018-12-04T11:30:31.544Z,10.93
2018-12-04T11:40:32.838Z,8.63
2018-12-04T11:50:34.134Z,11.53
2018-12-04T12:00:36.169Z,19.50
2018-12-04T12:10:37.454Z,6.53
2018-12-04T12:20:39.489Z,4.83
2018-12-04T12:30:40.745Z,8.57
2018-12-04T12:40:42.257Z,7.60
2018-12-04T12:50:43.561Z,19.53
2018-12-04T13:00:44.817Z,11.70
2018-12-04T13:10:46.097Z,0.97
2018-12-04T13:20:47.394Z,2.77
2018-12-04T13:30:48.712Z,0.40
2018-12-04T13:40:49.986Z,0.50
2018-12-04T13:50:51.325Z,0.27
2018-12-04T14:00:52.635Z,0.37
2018-12-04T14:10:54.676Z,0.37
2018-12-04T14:20:56.169Z,0.30
2018-12-04T14:30:57.477Z,0.80
2018-12-04T14:40:58.748Z,0.40
2018-12-04T14:50:59.990Z,2.90
2018-12-04T15:01:01.284Z,1.00
2018-12-04T15:11:02.586Z,1.13
2018-12-04T15:21:03.890Z,2.43
2018-12-04T15:31:05.197Z,9.37
2018-12-04T15:41:06.552Z,0.80
2018-12-04T15:51:08.062Z,0.80
2018-12-04T16:01:09.318Z,2.53
2018-12-04T16:11:10.568Z,3.90
2018-12-04T16:21:12.084Z,4.47
2018-12-04T16:31:14.502Z,5.43
2018-12-04T16:41:15.745Z,4.60
2018-12-04T16:51:17.038Z,7.13
2018-12-04T17:01:18.307Z,10.40
2018-12-04T17:11:19.684Z,15.27
2018-12-04T17:21:21.183Z,16.00
2018-12-04T17:31:22.498Z,21.13
2018-12-04T18:01:45.544Z,19.10
2018-12-04T18:11:47.578Z,18.47
2018-12-04T18:21:48.833Z,22.57
2018-12-04T18:31:50.081Z,16.60
2018-12-04T18:41:51.337Z,13.93
2018-12-04T18:51:52.596Z,13.97
2018-12-04T19:01:53.889Z,7.03
2018-12-04T19:11:59.015Z,8.60
2018-12-04T19:22:01.068Z,6.50
2018-12-04T19:32:02.348Z,9.57
2018-12-04T19:42:03.617Z,9.40
2018-12-04T19:52:04.916Z,9.57
2018-12-04T20:02:06.157Z,9.07
2018-12-04T20:12:07.401Z,13.30
2018-12-04T20:22:08.636Z,11.17
2018-12-04T20:32:09.897Z,12.57
2018-12-04T20:42:11.930Z,14.77
2018-12-04T20:52:13.204Z,10.63
2018-12-04T21:02:15.257Z,7.80
2018-12-04T21:12:16.532Z,5.53
2018-12-04T21:32:28.965Z,1.37
2018-12-04T21:42:30.203Z,1.57
2018-12-04T21:52:31.468Z,3.00
2018-12-04T22:02:32.743Z,9.17
2018-12-04T22:12:33.988Z,9.80
2018-12-04T22:22:35.234Z,9.20
2018-12-04T22:32:36.495Z,10.83
2018-12-04T22:42:37.765Z,9.17
2018-12-04T22:52:39.021Z,9.40
2018-12-04T23:02:40.297Z,9.07
2018-12-04T23:12:42.326Z,7.10
